sensor_id;sensor_type;location;lat;lon;timestamp;pressure;altitude;pressure_sealevel;temperature;humidity
48089;BME280;33867;50.314;7.802;2023-04-29T03:52:41;100172.28;;;11.16;nan
48089;BME280;33867;50.314;7.802;2023-04-29T06:49:53;100372.91;;;11.31;nan
48089;BME280;33867;50.314;7.802;2023-04-29T07:04:40;100380.16;;;11.31;nan
48089;BME280;33867;50.314;7.802;2023-04-29T07:14:21;100390.41;;;11.27;nan
48089;BME280;33867;50.314;7.802;2023-04-29T07:23:34;100404.69;;;11.37;nan
48089;BME280;33867;50.314;7.802;2023-04-29T07:28:57;100411.25;;;11.62;nan
48089;BME280;33867;50.314;7.802;2023-04-29T08:27:57;100479.09;;;13.03;nan
48089;BME280;33867;50.314;7.802;2023-04-29T08:42:20;100492.94;;;13.44;nan
48089;BME280;33867;50.314;7.802;2023-04-29T10:44:29;100588.34;;;14.58;nan
48089;BME280;33867;50.314;7.802;2023-04-29T10:48:07;100597.28;;;15.17;nan
48089;BME280;33867;50.314;7.802;2023-04-29T11:17:49;100571.06;;;17.23;nan
48089;BME280;33867;50.314;7.802;2023-04-29T11:26:57;100585.19;;;16.25;nan
48089;BME280;33867;50.314;7.802;2023-04-29T11:39:21;100582.34;;;17.20;nan
48089;BME280;33867;50.314;7.802;2023-04-29T11:42:57;100577.81;;;17.50;nan
48089;BME280;33867;50.314;7.802;2023-04-29T11:46:20;100575.03;;;17.58;nan
48089;BME280;33867;50.314;7.802;2023-04-29T11:51:00;100574.41;;;17.94;nan
48089;BME280;33867;50.314;7.802;2023-04-29T11:54:42;100578.59;;;17.81;nan
48089;BME280;33867;50.314;7.802;2023-04-29T11:58:12;100580.03;;;17.92;nan
48089;BME280;33867;50.314;7.802;2023-04-29T12:01:32;100584.91;;;17.82;nan
48089;BME280;33867;50.314;7.802;2023-04-29T12:05:16;100584.31;;;17.72;nan
48089;BME280;33867;50.314;7.802;2023-04-29T12:08:45;100588.28;;;17.15;nan
48089;BME280;33867;50.314;7.802;2023-04-29T12:12:04;100597.19;;;17.09;nan
48089;BME280;33867;50.314;7.802;2023-04-29T12:15:28;100596.94;;;16.96;nan
48089;BME280;33867;50.314;7.802;2023-04-29T12:18:51;100599.72;;;16.80;nan
48089;BME280;33867;50.314;7.802;2023-04-29T12:22:13;100597.91;;;16.64;nan
48089;BME280;33867;50.314;7.802;2023-04-29T12:25:35;100602.56;;;16.94;nan
48089;BME280;33867;50.314;7.802;2023-04-29T12:28:57;100590.78;;;17.25;nan
48089;BME280;33867;50.314;7.802;2023-04-29T12:32:23;100586.25;;;17.40;nan
48089;BME280;33867;50.314;7.802;2023-04-29T12:36:15;100583.81;;;17.68;nan
48089;BME280;33867;50.314;7.802;2023-04-29T12:39:42;100581.34;;;17.59;nan
48089;BME280;33867;50.314;7.802;2023-04-29T12:43:06;100590.59;;;17.72;nan
48089;BME280;33867;50.314;7.802;2023-04-29T12:46:26;100594.13;;;18.10;nan
48089;BME280;33867;50.314;7.802;2023-04-29T12:49:49;100602.66;;;17.78;nan
48089;BME280;33867;50.314;7.802;2023-04-29T12:53:08;100602.22;;;18.04;nan
48089;BME280;33867;50.314;7.802;2023-04-29T12:56:30;100610.50;;;18.84;nan
48089;BME280;33867;50.314;7.802;2023-04-29T12:59:49;100605.84;;;20.06;nan
48089;BME280;33867;50.314;7.802;2023-04-29T13:03:09;100611.69;;;19.33;nan
48089;BME280;33867;50.314;7.802;2023-04-29T13:06:28;100617.00;;;18.54;nan
48089;BME280;33867;50.314;7.802;2023-04-29T13:09:55;100609.63;;;17.95;nan
48089;BME280;33867;50.314;7.802;2023-04-29T13:13:35;100607.25;;;17.09;nan
48089;BME280;33867;50.314;7.802;2023-04-29T13:16:54;100613.97;;;16.43;nan
48089;BME280;33867;50.314;7.802;2023-04-29T13:20:16;100622.03;;;16.20;nan
48089;BME280;33867;50.314;7.802;2023-04-29T13:29:04;100619.28;;;16.36;nan
48089;BME280;33867;50.314;7.802;2023-04-29T13:32:23;100616.00;;;16.49;nan
48089;BME280;33867;50.314;7.802;2023-04-29T13:35:47;100620.81;;;16.30;nan
48089;BME280;33867;50.314;7.802;2023-04-29T13:39:06;100630.03;;;16.05;nan
48089;BME280;33867;50.314;7.802;2023-04-29T13:42:26;100642.41;;;15.42;nan
48089;BME280;33867;50.314;7.802;2023-04-29T13:45:45;100642.94;;;14.79;nan
48089;BME280;33867;50.314;7.802;2023-04-29T13:54:29;100651.59;;;13.97;nan
48089;BME280;33867;50.314;7.802;2023-04-29T13:58:12;100644.53;;;14.56;nan
48089;BME280;33867;50.314;7.802;2023-04-29T14:01:56;100653.38;;;14.66;nan
48089;BME280;33867;50.314;7.802;2023-04-29T14:19:52;100656.81;;;13.90;nan
48089;BME280;33867;50.314;7.802;2023-04-29T14:28:22;100659.16;;;15.21;nan
48089;BME280;33867;50.314;7.802;2023-04-29T14:32:57;100658.00;;;15.32;nan
48089;BME280;33867;50.314;7.802;2023-04-29T14:36:31;100663.38;;;15.08;nan
48089;BME280;33867;50.314;7.802;2023-04-29T14:39:58;100665.84;;;14.25;nan
48089;BME280;33867;50.314;7.802;2023-04-29T14:43:18;100668.28;;;14.36;nan
48089;BME280;33867;50.314;7.802;2023-04-29T14:46:37;100681.72;;;14.20;nan
48089;BME280;33867;50.314;7.802;2023-04-29T14:55:27;100696.22;;;14.11;nan
48089;BME280;33867;50.314;7.802;2023-04-29T14:59:42;100695.56;;;14.17;nan
48089;BME280;33867;50.314;7.802;2023-04-29T15:08:20;100704.03;;;14.14;nan
48089;BME280;33867;50.314;7.802;2023-04-29T15:17:28;100706.69;;;13.88;nan
48089;BME280;33867;50.314;7.802;2023-04-29T15:21:41;100707.25;;;13.73;nan
48089;BME280;33867;50.314;7.802;2023-04-29T15:26:06;100721.72;;;13.64;nan
48089;BME280;33867;50.314;7.802;2023-04-29T15:29:54;100716.38;;;13.55;nan
48089;BME280;33867;50.314;7.802;2023-04-29T15:33:17;100722.09;;;13.52;nan
48089;BME280;33867;50.314;7.802;2023-04-29T15:40:38;100724.19;;;13.75;nan
48089;BME280;33867;50.314;7.802;2023-04-29T15:44:14;100732.34;;;13.84;nan
48089;BME280;33867;50.314;7.802;2023-04-29T15:48:04;100719.91;;;13.91;nan
48089;BME280;33867;50.314;7.802;2023-04-29T15:52:16;100725.78;;;14.04;nan
48089;BME280;33867;50.314;7.802;2023-04-29T16:00:56;100728.41;;;14.40;nan
48089;BME280;33867;50.314;7.802;2023-04-29T16:05:32;100728.91;;;14.61;nan
48089;BME280;33867;50.314;7.802;2023-04-29T16:09:15;100723.00;;;14.40;nan
48089;BME280;33867;50.314;7.802;2023-04-29T16:13:04;100730.94;;;14.41;nan
48089;BME280;33867;50.314;7.802;2023-04-29T16:17:18;100730.84;;;14.25;nan
48089;BME280;33867;50.314;7.802;2023-04-29T16:20:59;100726.34;;;14.33;nan
48089;BME280;33867;50.314;7.802;2023-04-29T16:24:19;100726.53;;;14.14;nan
48089;BME280;33867;50.314;7.802;2023-04-29T16:27:50;100732.72;;;14.07;nan
48089;BME280;33867;50.314;7.802;2023-04-29T16:32:12;100733.59;;;13.89;nan
48089;BME280;33867;50.314;7.802;2023-04-29T16:39:45;100730.53;;;13.66;nan
48089;BME280;33867;50.314;7.802;2023-04-29T16:43:14;100736.00;;;13.57;nan
48089;BME280;33867;50.314;7.802;2023-04-29T16:46:41;100732.28;;;13.40;nan
48089;BME280;33867;50.314;7.802;2023-04-29T16:50:23;100742.75;;;13.25;nan
48089;BME280;33867;50.314;7.802;2023-04-29T16:53:56;100743.50;;;13.17;nan
48089;BME280;33867;50.314;7.802;2023-04-29T16:58:06;100741.38;;;13.11;nan
48089;BME280;33867;50.314;7.802;2023-04-29T17:02:17;100747.94;;;13.09;nan
48089;BME280;33867;50.314;7.802;2023-04-29T17:06:28;100744.59;;;12.97;nan
48089;BME280;33867;50.314;7.802;2023-04-29T17:10:07;100748.03;;;12.89;nan
48089;BME280;33867;50.314;7.802;2023-04-29T17:18:18;100758.25;;;12.96;nan
48089;BME280;33867;50.314;7.802;2023-04-29T17:22:06;100769.66;;;12.89;nan
48089;BME280;33867;50.314;7.802;2023-04-29T17:29:03;100768.59;;;12.73;nan
48089;BME280;33867;50.314;7.802;2023-04-29T17:32:22;100760.16;;;12.76;nan
48089;BME280;33867;50.314;7.802;2023-04-29T17:35:46;100765.47;;;12.68;nan
48089;BME280;33867;50.314;7.802;2023-04-29T17:39:05;100756.66;;;12.66;nan
48089;BME280;33867;50.314;7.802;2023-04-29T17:47:13;100764.53;;;12.49;nan
48089;BME280;33867;50.314;7.802;2023-04-29T17:50:41;100767.63;;;12.54;nan
48089;BME280;33867;50.314;7.802;2023-04-29T17:54:05;100769.78;;;12.51;nan
48089;BME280;33867;50.314;7.802;2023-04-29T17:57:27;100763.81;;;12.47;nan
48089;BME280;33867;50.314;7.802;2023-04-29T18:00:46;100768.69;;;12.44;nan
48089;BME280;33867;50.314;7.802;2023-04-29T18:04:10;100786.00;;;12.41;nan
48089;BME280;33867;50.314;7.802;2023-04-29T18:07:29;100782.91;;;12.36;nan
48089;BME280;33867;50.314;7.802;2023-04-29T18:10:48;100791.44;;;12.32;nan
48089;BME280;33867;50.314;7.802;2023-04-29T18:14:16;100791.56;;;12.30;nan
48089;BME280;33867;50.314;7.802;2023-04-29T18:17:49;100788.31;;;12.26;nan
48089;BME280;33867;50.314;7.802;2023-04-29T18:21:19;100793.84;;;12.25;nan
48089;BME280;33867;50.314;7.802;2023-04-29T18:24:46;100788.44;;;12.25;nan
48089;BME280;33867;50.314;7.802;2023-04-29T18:28:13;100786.31;;;12.19;nan
48089;BME280;33867;50.314;7.802;2023-04-29T18:31:32;100792.16;;;12.14;nan
48089;BME280;33867;50.314;7.802;2023-04-29T18:35:01;100794.59;;;12.08;nan
48089;BME280;33867;50.314;7.802;2023-04-29T18:38:24;100786.34;;;11.99;nan
48089;BME280;33867;50.314;7.802;2023-04-29T18:41:47;100785.50;;;11.99;nan
48089;BME280;33867;50.314;7.802;2023-04-29T18:45:07;100787.19;;;11.90;nan
48089;BME280;33867;50.314;7.802;2023-04-29T18:48:29;100793.28;;;11.92;nan
48089;BME280;33867;50.314;7.802;2023-04-29T18:51:48;100787.75;;;11.84;nan
48089;BME280;33867;50.314;7.802;2023-04-29T18:55:10;100789.88;;;11.90;nan
48089;BME280;33867;50.314;7.802;2023-04-29T18:58:49;100791.97;;;11.77;nan
48089;BME280;33867;50.314;7.802;2023-04-29T19:02:09;100795.66;;;11.76;nan
48089;BME280;33867;50.314;7.802;2023-04-29T19:05:28;100797.06;;;11.70;nan
48089;BME280;33867;50.314;7.802;2023-04-29T19:08:47;100799.03;;;11.59;nan
48089;BME280;33867;50.314;7.802;2023-04-29T19:12:09;100804.09;;;11.33;nan
48089;BME280;33867;50.314;7.802;2023-04-29T19:15:31;100804.47;;;11.19;nan
48089;BME280;33867;50.314;7.802;2023-04-29T19:18:50;100823.53;;;11.36;nan
48089;BME280;33867;50.314;7.802;2023-04-29T19:22:09;100825.94;;;11.30;nan
48089;BME280;33867;50.314;7.802;2023-04-29T19:25:28;100830.75;;;11.26;nan
48089;BME280;33867;50.314;7.802;2023-04-29T19:28:49;100828.31;;;11.23;nan
48089;BME280;33867;50.314;7.802;2023-04-29T19:32:14;100841.97;;;11.31;nan
48089;BME280;33867;50.314;7.802;2023-04-29T19:35:32;100836.28;;;11.34;nan
48089;BME280;33867;50.314;7.802;2023-04-29T19:38:52;100847.97;;;11.04;nan
48089;BME280;33867;50.314;7.802;2023-04-29T19:42:16;100850.06;;;11.01;nan
48089;BME280;33867;50.314;7.802;2023-04-29T19:45:35;100855.53;;;11.20;nan
48089;BME280;33867;50.314;7.802;2023-04-29T19:48:55;100847.47;;;11.20;nan
48089;BME280;33867;50.314;7.802;2023-04-29T19:52:14;100851.34;;;11.27;nan
48089;BME280;33867;50.314;7.802;2023-04-29T20:03:02;100846.88;;;10.86;nan
48089;BME280;33867;50.314;7.802;2023-04-29T20:06:22;100849.69;;;11.05;nan
48089;BME280;33867;50.314;7.802;2023-04-29T20:09:41;100844.72;;;11.10;nan
48089;BME280;33867;50.314;7.802;2023-04-29T20:16:30;100848.53;;;11.08;nan
48089;BME280;33867;50.314;7.802;2023-04-29T20:19:50;100834.94;;;11.09;nan
48089;BME280;33867;50.314;7.802;2023-04-29T20:23:30;100843.63;;;11.13;nan
48089;BME280;33867;50.314;7.802;2023-04-29T20:27:29;100846.41;;;11.11;nan
48089;BME280;33867;50.314;7.802;2023-04-29T20:30:57;100840.03;;;11.03;nan
48089;BME280;33867;50.314;7.802;2023-04-29T20:41:21;100850.97;;;11.11;nan
48089;BME280;33867;50.314;7.802;2023-04-29T20:44:45;100857.63;;;11.07;nan
48089;BME280;33867;50.314;7.802;2023-04-29T20:48:04;100849.63;;;10.96;nan
48089;BME280;33867;50.314;7.802;2023-04-29T20:51:44;100860.41;;;10.96;nan
48089;BME280;33867;50.314;7.802;2023-04-29T20:55:07;100854.72;;;10.99;nan
48089;BME280;33867;50.314;7.802;2023-04-29T20:58:53;100866.34;;;10.99;nan
48089;BME280;33867;50.314;7.802;2023-04-29T21:02:14;100877.13;;;10.90;nan
48089;BME280;33867;50.314;7.802;2023-04-29T21:05:20;100878.63;;;10.82;nan
48089;BME280;33867;50.314;7.802;2023-04-29T21:08:40;100876.50;;;10.86;nan
48089;BME280;33867;50.314;7.802;2023-04-29T21:36:57;100878.31;;;10.55;nan
48089;BME280;33867;50.314;7.802;2023-04-29T21:40:18;100876.47;;;10.56;nan
48089;BME280;33867;50.314;7.802;2023-04-29T21:44:18;100877.44;;;10.54;nan
48089;BME280;33867;50.314;7.802;2023-04-29T21:48:31;100885.19;;;10.48;nan
48089;BME280;33867;50.314;7.802;2023-04-29T21:57:02;100903.66;;;10.41;nan
48089;BME280;33867;50.314;7.802;2023-04-29T22:00:50;100890.47;;;10.38;nan
48089;BME280;33867;50.314;7.802;2023-04-29T22:04:39;100883.53;;;10.36;nan
48089;BME280;33867;50.314;7.802;2023-04-29T22:08:27;100890.78;;;10.24;nan
48089;BME280;33867;50.314;7.802;2023-04-29T22:11:52;100895.06;;;10.27;nan
48089;BME280;33867;50.314;7.802;2023-04-29T22:15:16;100898.25;;;10.20;nan
48089;BME280;33867;50.314;7.802;2023-04-29T22:18:36;100898.59;;;10.16;nan
48089;BME280;33867;50.314;7.802;2023-04-29T22:22:00;100899.00;;;10.11;nan
48089;BME280;33867;50.314;7.802;2023-04-29T22:31:23;100913.47;;;9.99;nan
48089;BME280;33867;50.314;7.802;2023-04-29T22:34:42;100912.47;;;10.00;nan
48089;BME280;33867;50.314;7.802;2023-04-29T22:38:03;100912.75;;;9.97;nan
48089;BME280;33867;50.314;7.802;2023-04-29T22:41:23;100925.22;;;9.98;nan
48089;BME280;33867;50.314;7.802;2023-04-29T22:44:42;100915.34;;;9.87;nan
48089;BME280;33867;50.314;7.802;2023-04-29T22:48:08;100924.25;;;9.88;nan
48089;BME280;33867;50.314;7.802;2023-04-29T22:51:27;100926.97;;;9.65;nan
48089;BME280;33867;50.314;7.802;2023-04-29T22:54:51;100917.78;;;9.79;nan
48089;BME280;33867;50.314;7.802;2023-04-29T22:58:11;100923.13;;;9.90;nan
48089;BME280;33867;50.314;7.802;2023-04-29T23:02:03;100925.97;;;9.89;nan
48089;BME280;33867;50.314;7.802;2023-04-29T23:06:01;100913.38;;;9.78;nan
48089;BME280;33867;50.314;7.802;2023-04-29T23:13:33;100920.34;;;9.81;nan
48089;BME280;33867;50.314;7.802;2023-04-29T23:25:49;100935.16;;;9.64;nan
48089;BME280;33867;50.314;7.802;2023-04-29T23:33:05;100927.22;;;9.62;nan
48089;BME280;33867;50.314;7.802;2023-04-29T23:36:25;100936.16;;;9.63;nan
48089;BME280;33867;50.314;7.802;2023-04-29T23:39:50;100933.09;;;9.56;nan
48089;BME280;33867;50.314;7.802;2023-04-29T23:47:24;100944.59;;;9.47;nan
